Time;durP1;ratioP1;P1;durP2;ratioP2;P2;SDS_P1;SDS_P2;PMS_P1;PMS_P2;Temp;Humidity;BMP_temperature;BMP_pressure;BME280_temperature;BME280_humidity;BME280_pressure;Samples;Min_cycle;Max_cycle;Signal;HPM_P1;HPM_P2
2022/06/30 00:03:45;;;;;;;7.22;6.60;;;;;;;24.24;67.04;99726.72;10347303;28;20042;-70
2022/06/30 00:08:47;;;;;;;6.97;6.28;;;;;;;24.17;66.99;99717.84;10356472;28;20053;-71
2022/06/30 00:13:49;;;;;;;7.40;6.72;;;;;;;24.16;67.12;99725.16;10353686;28;20124;-71
2022/06/30 00:18:50;;;;;;;7.20;6.60;;;;;;;24.14;67.27;99727.28;10347531;28;20939;-70
2022/06/30 00:23:51;;;;;;;7.03;6.32;;;;;;;24.07;67.99;99720.25;10348883;28;20079;-71
2022/06/30 00:28:53;;;;;;;7.75;6.13;;;;;;;23.99;68.17;99722.19;10347585;28;20412;-71
2022/06/30 00:33:54;;;;;;;6.72;5.88;;;;;;;23.94;68.48;99722.00;10349794;28;20890;-70
2022/06/30 00:38:56;;;;;;;7.25;6.53;;;;;;;23.88;69.13;99719.38;10347900;28;20053;-70
2022/06/30 00:43:57;;;;;;;8.23;6.68;;;;;;;23.82;69.59;99718.34;10347704;28;20124;-70
2022/06/30 00:48:59;;;;;;;9.50;6.53;;;;;;;23.79;68.96;99707.94;10345569;28;20049;-70
2022/06/30 00:54:03;;;;;;;15.63;7.43;;;;;;;23.76;69.70;99708.38;10346511;28;20050;-69
2022/06/30 00:59:05;;;;;;;7.90;6.53;;;;;;;23.72;69.60;99708.00;10347131;28;20060;-71
2022/06/30 01:04:07;;;;;;;6.45;5.85;;;;;;;23.63;69.93;99699.31;10355153;28;20128;-71
2022/06/30 01:09:08;;;;;;;7.05;6.35;;;;;;;23.57;70.53;99689.34;10345351;28;20634;-72
2022/06/30 01:14:10;;;;;;;7.25;6.57;;;;;;;23.48;70.63;99686.06;10353427;28;20136;-70
2022/06/30 01:19:14;;;;;;;7.68;7.00;;;;;;;23.44;70.63;99682.13;10346610;28;20054;-70
2022/06/30 01:24:15;;;;;;;8.18;6.90;;;;;;;23.42;70.86;99691.53;10344760;28;20054;-70
2022/06/30 01:29:17;;;;;;;7.45;6.78;;;;;;;23.40;70.38;99694.47;10346405;28;20152;-69
2022/06/30 01:34:19;;;;;;;7.68;6.97;;;;;;;23.39;70.44;99692.81;10345831;28;20155;-70
2022/06/30 01:39:21;;;;;;;8.30;7.35;;;;;;;23.40;70.20;99693.66;10344420;28;20052;-70
2022/06/30 01:44:22;;;;;;;7.70;7.05;;;;;;;23.35;70.63;99688.88;10344253;28;20790;-70
2022/06/30 01:49:24;;;;;;;8.05;7.25;;;;;;;23.30;70.31;99689.56;10348125;28;20061;-72
2022/06/30 01:54:25;;;;;;;8.13;7.32;;;;;;;23.28;70.77;99686.22;10345344;28;20056;-71
2022/06/30 01:59:27;;;;;;;9.20;8.30;;;;;;;23.24;70.90;99693.16;10343854;28;20049;-71
2022/06/30 02:09:51;;;;;;;9.10;8.20;;;;;;;23.17;70.85;99684.22;10345618;28;20045;-71
2022/06/30 02:14:52;;;;;;;10.20;9.30;;;;;;;23.19;70.85;99695.66;10342007;28;20452;-71
2022/06/30 02:19:54;;;;;;;10.45;9.35;;;;;;;23.03;72.29;99683.44;10342052;28;20049;-71
2022/06/30 02:24:55;;;;;;;9.27;8.25;;;;;;;22.99;71.94;99687.66;10355971;28;20037;-71
2022/06/30 02:29:56;;;;;;;10.38;9.38;;;;;;;23.03;71.93;99693.47;10347733;28;20461;-72
2022/06/30 02:34:58;;;;;;;9.70;8.80;;;;;;;23.03;71.59;99694.31;10349440;28;20054;-75
2022/06/30 02:39:59;;;;;;;9.82;8.90;;;;;;;22.99;71.97;99697.69;10352534;28;20050;-70
2022/06/30 02:45:01;;;;;;;10.32;9.40;;;;;;;22.97;71.80;99688.91;10348824;28;20128;-70
2022/06/30 02:50:06;;;;;;;10.90;9.80;;;;;;;22.95;71.59;99687.25;10349207;28;20142;-70
2022/06/30 02:55:08;;;;;;;10.63;9.60;;;;;;;22.88;72.13;99685.63;10351520;28;20098;-70
2022/06/30 03:00:10;;;;;;;10.82;9.90;;;;;;;22.88;72.41;99678.31;10356304;28;20524;-72
2022/06/30 03:05:12;;;;;;;10.20;9.35;;;;;;;22.79;72.71;99674.22;10348923;28;20054;-71
2022/06/30 03:10:13;;;;;;;10.70;9.80;;;;;;;22.75;72.60;99667.56;10348173;28;20045;-71
2022/06/30 03:15:15;;;;;;;11.13;10.23;;;;;;;22.69;72.63;99669.25;10348332;28;20045;-70
2022/06/30 03:20:16;;;;;;;11.25;10.25;;;;;;;22.70;72.91;99687.19;10346883;28;20054;-70
2022/06/30 03:25:18;;;;;;;11.68;10.70;;;;;;;22.47;74.14;99674.16;10348879;28;20053;-70
2022/06/30 03:30:19;;;;;;;12.05;10.80;;;;;;;22.52;73.35;99674.34;10349761;28;20537;-71
2022/06/30 03:35:21;;;;;;;11.90;10.85;;;;;;;22.59;72.94;99687.88;10346729;28;20057;-71
2022/06/30 03:40:22;;;;;;;11.00;10.10;;;;;;;22.54;73.13;99674.97;10346034;28;20073;-70
2022/06/30 03:45:23;;;;;;;11.75;10.65;;;;;;;22.53;73.56;99672.47;10350728;28;20076;-70
2022/06/30 03:50:25;;;;;;;11.48;10.48;;;;;;;22.52;73.31;99687.91;10347240;28;20139;-69
2022/06/30 03:55:27;;;;;;;11.77;10.57;;;;;;;22.47;74.07;99695.84;10346826;28;20045;-70
2022/06/30 04:00:28;;;;;;;11.73;10.63;;;;;;;22.45;74.30;99692.53;10345661;28;20052;-70
2022/06/30 04:05:30;;;;;;;12.40;11.30;;;;;;;22.42;74.25;99688.34;10345940;28;20451;-71
2022/06/30 04:10:31;;;;;;;12.98;11.80;;;;;;;22.46;74.36;99696.91;10344874;28;20128;-72
2022/06/30 04:15:32;;;;;;;13.73;12.52;;;;;;;22.44;74.60;99695.47;10340277;28;20061;-70
2022/06/30 04:20:34;;;;;;;11.98;10.90;;;;;;;22.45;74.97;99697.94;10348893;28;20484;-70
2022/06/30 04:25:38;;;;;;;10.60;9.60;;;;;;;22.47;74.87;99712.13;10348544;28;20484;-70
2022/06/30 04:36:00;;;;;;;11.65;10.55;;;;;;;22.51;74.46;99702.50;10348570;28;20047;-70
2022/06/30 04:46:22;;;;;;;11.50;10.50;;;;;;;22.50;75.04;99705.44;10352242;28;20128;-69
2022/06/30 04:51:24;;;;;;;11.47;10.50;;;;;;;22.47;75.22;99703.16;10341418;28;20053;-70
2022/06/30 04:56:26;;;;;;;11.30;10.30;;;;;;;22.47;75.35;99706.69;10331578;28;20430;-69
2022/06/30 05:01:27;;;;;;;11.70;10.07;;;;;;;22.45;75.57;99697.13;10337479;28;20724;-71
2022/06/30 05:06:29;;;;;;;11.30;10.35;;;;;;;22.46;75.54;99699.63;10339149;28;20116;-70
2022/06/30 05:11:30;;;;;;;12.90;11.60;;;;;;;22.48;75.68;99697.53;10338079;28;20058;-71
2022/06/30 05:16:31;;;;;;;12.57;11.20;;;;;;;22.47;75.49;99695.84;10334472;28;20784;-70
2022/06/30 05:21:33;;;;;;;11.85;10.85;;;;;;;22.51;75.25;99691.66;10346732;28;20722;-71
2022/06/30 05:26:34;;;;;;;12.52;11.27;;;;;;;22.57;76.04;99704.34;10338561;28;20049;-71
2022/06/30 05:31:36;;;;;;;13.00;11.82;;;;;;;22.64;75.43;99695.34;10339932;28;20111;-71
2022/06/30 05:36:37;;;;;;;11.90;10.75;;;;;;;22.78;75.06;99696.97;10358546;28;20555;-72
2022/06/30 05:41:39;;;;;;;11.60;10.40;;;;;;;22.98;74.59;99696.00;10338583;28;20220;-72
2022/06/30 05:46:40;;;;;;;11.63;10.55;;;;;;;23.03;74.36;99690.75;10337345;28;20087;-71
2022/06/30 05:51:42;;;;;;;11.02;9.93;;;;;;;23.10;73.41;99695.13;10334601;28;20045;-71
2022/06/30 05:56:44;;;;;;;11.05;8.75;;;;;;;23.20;72.81;99699.25;10346203;28;20049;-71
2022/06/30 06:01:45;;;;;;;8.82;7.90;;;;;;;23.40;72.25;99704.50;10343843;28;20053;-69
2022/06/30 06:06:47;;;;;;;9.43;8.52;;;;;;;23.44;71.58;99695.69;10346529;28;20069;-72
2022/06/30 06:11:48;;;;;;;10.05;9.05;;;;;;;23.50;71.66;99693.97;10348863;28;22099;-72
2022/06/30 06:16:50;;;;;;;9.32;8.52;;;;;;;23.56;71.24;99689.56;10348815;28;20092;-70
2022/06/30 06:21:51;;;;;;;9.52;8.18;;;;;;;23.61;70.97;99685.09;10339561;28;20500;-70
2022/06/30 06:26:53;;;;;;;8.63;7.82;;;;;;;23.67;70.04;99688.81;10345198;28;20712;-70
2022/06/30 06:31:54;;;;;;;8.43;7.63;;;;;;;23.75;69.76;99696.69;10349296;28;20064;-70
2022/06/30 06:36:55;;;;;;;10.15;9.15;;;;;;;23.90;69.18;99690.09;10343636;28;20770;-72
2022/06/30 06:41:57;;;;;;;9.23;8.15;;;;;;;23.96;69.32;99675.59;10348782;28;20052;-72
2022/06/30 06:46:58;;;;;;;8.80;8.00;;;;;;;24.09;68.29;99686.31;10343790;28;20042;-72
2022/06/30 06:52:00;;;;;;;9.40;8.50;;;;;;;24.16;67.96;99675.38;10354496;28;20439;-72
2022/06/30 06:57:01;;;;;;;8.55;7.78;;;;;;;24.33;68.01;99667.44;10351167;28;20523;-71
2022/06/30 07:02:03;;;;;;;8.75;7.85;;;;;;;24.51;66.38;99686.44;10339590;28;20053;-73
2022/06/30 07:07:04;;;;;;;9.52;8.57;;;;;;;24.51;65.06;99693.78;10350402;28;20111;-75
2022/06/30 07:12:06;;;;;;;9.65;8.63;;;;;;;24.52;66.04;99690.81;10385234;28;20076;-75
2022/06/30 07:17:07;;;;;;;9.32;8.45;;;;;;;24.74;65.72;99687.66;10358827;28;20499;-74
2022/06/30 07:22:09;;;;;;;8.77;7.97;;;;;;;24.77;64.87;99683.63;10350564;28;20132;-72
2022/06/30 07:27:10;;;;;;;8.45;7.03;;;;;;;24.80;63.95;99675.00;10354055;28;20915;-71
2022/06/30 07:32:13;;;;;;;7.95;7.13;;;;;;;25.06;63.00;99687.41;10353325;28;20054;-72
2022/06/30 07:37:14;;;;;;;7.80;7.07;;;;;;;25.11;62.72;99678.53;10351576;28;20062;-73
2022/06/30 07:42:16;;;;;;;9.52;8.40;;;;;;;25.24;63.48;99689.22;10350755;28;20045;-71
2022/06/30 07:47:17;;;;;;;7.97;7.28;;;;;;;25.31;63.19;99698.16;10355361;28;20890;-73
2022/06/30 07:52:18;;;;;;;9.02;8.25;;;;;;;25.32;62.66;99688.91;10349301;28;20049;-72
2022/06/30 07:57:23;;;;;;;8.90;8.02;;;;;;;25.51;62.30;99692.38;10342087;28;20132;-71
2022/06/30 08:02:34;;;;;;;8.30;7.50;;;;;;;25.88;61.80;99696.75;10351087;28;20477;-70
2022/06/30 08:07:37;;;;;;;9.60;8.60;;;;;;;26.27;60.04;99691.63;10341708;28;20522;-71
2022/06/30 08:12:38;;;;;;;8.63;7.68;;;;;;;26.38;59.38;99684.50;10337943;28;20136;-70
2022/06/30 08:17:39;;;;;;;8.70;7.82;;;;;;;26.56;58.13;99683.50;10340458;28;20053;-70
2022/06/30 08:22:41;;;;;;;11.00;8.30;;;;;;;26.85;58.40;99672.59;10345872;28;20054;-71
2022/06/30 08:27:43;;;;;;;8.85;8.00;;;;;;;27.03;56.95;99680.56;10344092;28;20050;-70
2022/06/30 08:32:44;;;;;;;8.82;7.93;;;;;;;27.03;57.40;99663.34;10341717;28;22844;-70
2022/06/30 08:37:46;;;;;;;8.07;7.35;;;;;;;27.35;57.25;99666.38;10353136;28;21730;-70
2022/06/30 08:42:47;;;;;;;8.40;7.70;;;;;;;27.43;56.18;99662.38;10335656;28;20056;-72
2022/06/30 08:47:49;;;;;;;9.63;8.73;;;;;;;27.45;55.20;99647.41;10349799;28;20049;-71
2022/06/30 08:52:55;;;;;;;9.93;7.78;;;;;;;27.71;54.90;99658.72;10339920;28;20655;-72
2022/06/30 08:58:05;;;;;;;8.27;7.50;;;;;;;27.82;53.79;99646.84;10338908;28;20061;-70
2022/06/30 09:03:07;;;;;;;8.07;7.28;;;;;;;27.96;54.19;99646.50;10331021;28;20287;-72
2022/06/30 09:08:08;;;;;;;7.70;7.03;;;;;;;28.17;53.20;99639.41;10339439;28;20420;-72
2022/06/30 09:13:39;;;;;;;7.18;6.57;;;;;;;28.35;51.67;99638.25;10330796;28;20490;-71
2022/06/30 09:18:41;;;;;;;7.70;6.95;;;;;;;28.60;50.34;99634.16;10334143;28;20187;-72
2022/06/30 09:23:44;;;;;;;6.97;6.30;;;;;;;28.94;50.96;99620.25;10337194;28;20206;-71
2022/06/30 09:28:54;;;;;;;9.10;6.55;;;;;;;29.46;46.90;99621.50;10345514;28;20061;-71
2022/06/30 09:34:20;;;;;;;8.25;6.53;;;;;;;29.66;47.38;99621.59;10339322;28;21162;-71
2022/06/30 09:39:23;;;;;;;6.90;5.45;;;;;;;29.90;46.58;99615.72;10342141;28;20195;-70
2022/06/30 09:44:26;;;;;;;6.75;6.25;;;;;;;30.10;45.63;99612.25;10338654;28;20037;-70
2022/06/30 09:49:30;;;;;;;6.43;5.75;;;;;;;30.05;45.69;99621.28;10342910;28;20057;-70
2022/06/30 09:54:34;;;;;;;6.00;5.00;;;;;;;30.38;43.17;99621.13;10343732;28;20755;-70
2022/06/30 09:59:35;;;;;;;6.45;5.85;;;;;;;30.69;42.21;99605.56;10345156;28;20062;-71
2022/06/30 10:04:57;;;;;;;4.82;4.43;;;;;;;30.87;40.00;99597.88;10343270;28;20053;-71
2022/06/30 10:10:00;;;;;;;5.90;3.90;;;;;;;31.33;39.55;99593.22;10337445;28;20396;-71
2022/06/30 10:15:02;;;;;;;5.40;4.50;;;;;;;31.58;37.47;99588.78;10338812;28;20488;-71
2022/06/30 10:20:04;;;;;;;6.53;4.80;;;;;;;31.42;39.54;99587.16;10338395;28;20044;-71
2022/06/30 10:25:06;;;;;;;5.38;4.22;;;;;;;31.66;38.38;99587.38;10342919;28;20053;-71
2022/06/30 10:30:15;;;;;;;6.38;4.82;;;;;;;31.97;36.12;99590.03;10342391;28;20128;-72
2022/06/30 10:35:44;;;;;;;5.28;4.75;;;;;;;32.17;36.78;99586.38;10342266;28;20734;-71
2022/06/30 10:40:59;;;;;;;5.47;4.72;;;;;;;32.36;35.86;99586.56;10341371;28;20434;-72
2022/06/30 10:46:07;;;;;;;5.50;4.10;;;;;;;32.47;35.50;99581.81;10339083;28;20944;-73
2022/06/30 10:51:14;;;;;;;6.10;4.72;;;;;;;32.71;35.12;99577.28;10339546;28;20084;-73
2022/06/30 10:56:16;;;;;;;4.75;4.35;;;;;;;32.39;36.86;99564.78;10367745;28;20096;-73
2022/06/30 11:01:18;;;;;;;5.18;4.00;;;;;;;32.80;33.97;99562.88;10344018;28;20057;-73
2022/06/30 11:06:19;;;;;;;4.90;4.50;;;;;;;33.19;32.25;99559.19;10344858;28;20095;-72
2022/06/30 11:11:28;;;;;;;;;;;;;;;33.22;32.36;99553.13;10342585;28;20598;-74
2022/06/30 11:16:31;;;;;;;4.35;3.83;;;;;;;33.37;33.12;99550.19;10346557;28;19936;-74
2022/06/30 11:21:33;;;;;;;5.40;4.07;;;;;;;33.36;32.78;99534.78;10349082;28;20056;-74
2022/06/30 11:31:59;;;;;;;3.90;3.40;;;;;;;33.96;32.33;99539.88;10341742;28;20049;-75
2022/06/30 11:37:01;;;;;;;4.72;3.90;;;;;;;34.16;30.53;99527.72;10343689;28;20059;-75
2022/06/30 11:42:06;;;;;;;9.43;3.97;;;;;;;34.44;32.29;99521.53;10351462;28;20077;-75
2022/06/30 11:47:10;;;;;;;5.57;3.75;;;;;;;34.66;30.54;99524.47;10344448;28;20206;-74
2022/06/30 11:52:29;;;;;;;3.85;3.65;;;;;;;34.72;30.33;99514.16;10347119;28;20050;-73
2022/06/30 11:57:38;;;;;;;4.00;3.58;;;;;;;34.65;31.10;99510.97;10348819;28;20060;-74
2022/06/30 12:02:41;;;;;;;4.93;4.43;;;;;;;34.63;29.60;99518.75;10352221;28;20693;-74
2022/06/30 12:07:44;;;;;;;4.82;4.40;;;;;;;34.29;30.14;99514.28;10348728;28;20535;-75
2022/06/30 12:12:45;;;;;;;5.05;4.50;;;;;;;33.91;30.65;99506.00;10345611;28;20171;-73
2022/06/30 12:17:53;;;;;;;4.65;4.03;;;;;;;33.87;32.21;99503.03;10344441;28;20120;-73
2022/06/30 12:22:56;;;;;;;5.38;4.32;;;;;;;33.97;29.91;99510.31;10337644;28;20529;-72
2022/06/30 12:27:58;;;;;;;4.43;4.00;;;;;;;33.83;30.06;99496.44;10351259;28;20133;-72
2022/06/30 12:33:03;;;;;;;4.35;3.30;;;;;;;33.91;31.43;99492.19;10354564;28;20053;-72
2022/06/30 12:38:26;;;;;;;4.35;3.63;;;;;;;33.93;30.56;99495.47;10360296;28;20136;-74
2022/06/30 12:43:27;;;;;;;4.10;3.55;;;;;;;34.10;31.14;99493.00;10360655;28;20572;-74
2022/06/30 12:48:52;;;;;;;4.78;3.95;;;;;;;33.89;30.47;99472.34;10354850;28;20323;-74
2022/06/30 12:54:02;;;;;;;4.57;4.18;;;;;;;33.72;30.58;99470.91;10353452;28;20049;-74
2022/06/30 12:59:12;;;;;;;4.28;3.88;;;;;;;33.74;29.96;99474.22;10345300;28;20956;-74
2022/06/30 13:04:16;;;;;;;4.70;4.30;;;;;;;33.67;30.22;99470.94;10343615;28;20152;-75
2022/06/30 13:09:23;;;;;;;4.15;3.75;;;;;;;33.43;29.70;99469.03;10340308;28;20049;-74
2022/06/30 13:14:28;;;;;;;3.88;3.58;;;;;;;33.54;28.94;99468.91;10349477;28;20130;-74
2022/06/30 13:19:31;;;;;;;3.60;3.30;;;;;;;33.63;29.14;99454.19;10345828;28;20065;-72
2022/06/30 13:24:33;;;;;;;5.15;3.72;;;;;;;33.71;28.96;99444.41;10341004;28;20108;-73
2022/06/30 13:29:35;;;;;;;3.35;3.15;;;;;;;33.67;29.80;99442.56;10354157;28;20684;-74
2022/06/30 13:34:36;;;;;;;4.10;3.58;;;;;;;33.55;30.01;99440.22;10346322;28;20052;-74
2022/06/30 13:39:38;;;;;;;4.20;3.55;;;;;;;33.05;29.85;99433.09;10351002;28;20052;-73
2022/06/30 13:44:39;;;;;;;;;;;;;;;32.67;30.28;99432.94;10349116;28;20206;-73
2022/06/30 13:49:43;;;;;;;3.73;3.23;;;;;;;32.59;30.32;99419.75;10349212;28;20307;-74
2022/06/30 13:54:45;;;;;;;3.50;3.20;;;;;;;32.72;31.00;99418.28;10333127;28;20046;-73
2022/06/30 13:59:46;;;;;;;3.63;3.05;;;;;;;32.91;30.41;99416.44;10337903;28;20052;-73
2022/06/30 14:04:47;;;;;;;3.80;2.60;;;;;;;32.85;29.86;99411.25;10343448;28;20457;-72
2022/06/30 14:09:49;;;;;;;4.50;3.30;;;;;;;32.60;29.67;99407.63;10345017;28;20047;-73
2022/06/30 14:14:50;;;;;;;3.25;2.95;;;;;;;32.47;30.12;99395.34;10336531;28;20057;-74
2022/06/30 14:19:52;;;;;;;;;;;;;;;32.38;30.53;99397.94;10341693;28;20080;-74
2022/06/30 14:24:53;;;;;;;4.22;2.05;;;;;;;32.24;28.89;99391.44;10351661;28;20447;-73
2022/06/30 14:29:55;;;;;;;3.92;2.40;;;;;;;32.18;27.73;99376.09;10346586;28;20138;-76
2022/06/30 14:34:56;;;;;;;2.22;1.90;;;;;;;32.10;27.27;99382.16;10346960;28;20163;-72
2022/06/30 14:39:58;;;;;;;2.47;1.73;;;;;;;31.99;27.06;99395.19;10351453;28;21187;-73
2022/06/30 14:44:59;;;;;;;2.15;1.65;;;;;;;31.80;27.19;99375.78;10344196;28;20545;-75
2022/06/30 14:50:00;;;;;;;2.53;1.70;;;;;;;31.75;27.00;99384.06;10332161;28;20053;-75
2022/06/30 14:55:04;;;;;;;1.63;1.52;;;;;;;31.71;26.43;99375.59;10356858;28;20132;-73
2022/06/30 15:00:08;;;;;;;3.03;1.92;;;;;;;31.72;27.67;99378.06;10343960;28;20050;-72
2022/06/30 15:05:10;;;;;;;3.08;1.63;;;;;;;31.58;27.99;99363.28;10345711;28;20069;-74
2022/06/30 15:10:11;;;;;;;2.40;1.65;;;;;;;31.52;26.92;99358.88;10350253;28;20285;-73
2022/06/30 15:15:13;;;;;;;1.98;1.80;;;;;;;31.45;27.38;99347.38;10345190;28;20226;-74
2022/06/30 15:20:15;;;;;;;3.28;1.73;;;;;;;31.46;27.69;99338.03;10345263;28;20577;-73
2022/06/30 15:25:16;;;;;;;3.08;1.27;;;;;;;31.41;27.69;99335.28;10350071;28;20108;-74
2022/06/30 15:30:18;;;;;;;1.63;1.40;;;;;;;31.43;27.72;99317.41;10359841;28;20053;-74
2022/06/30 15:35:19;;;;;;;2.22;1.30;;;;;;;31.42;27.29;99328.69;10340501;28;20057;-74
2022/06/30 15:40:21;;;;;;;2.67;1.40;;;;;;;31.43;27.90;99316.59;10360036;28;20843;-75
2022/06/30 15:45:23;;;;;;;;;;;;;;;31.34;27.25;99332.88;10346124;28;20053;-73
2022/06/30 15:50:25;;;;;;;1.77;1.55;;;;;;;31.27;28.63;99316.72;10350122;28;19920;-74
2022/06/30 15:55:26;;;;;;;2.07;1.93;;;;;;;31.32;28.21;99297.41;10349901;28;20054;-74
2022/06/30 16:00:27;;;;;;;2.23;1.27;;;;;;;31.38;28.29;99304.53;10345016;28;20650;-74
2022/06/30 16:05:29;;;;;;;3.40;1.70;;;;;;;31.46;27.93;99316.03;10343890;28;20354;-74
2022/06/30 16:10:31;;;;;;;2.13;1.27;;;;;;;31.55;27.49;99326.16;10339049;28;20913;-74
2022/06/30 16:15:33;;;;;;;1.75;1.30;;;;;;;31.58;26.53;99335.78;10347338;28;20049;-74
2022/06/30 16:20:34;;;;;;;1.40;1.30;;;;;;;31.63;27.28;99338.50;10351118;28;20053;-73
2022/06/30 16:25:36;;;;;;;2.47;1.50;;;;;;;31.66;28.00;99337.94;10347980;28;20059;-74
2022/06/30 16:30:38;;;;;;;3.08;1.60;;;;;;;31.68;27.31;99337.66;10348844;28;20092;-75
2022/06/30 16:35:39;;;;;;;;;;;;;;;31.69;26.99;99331.88;10352680;28;20049;-75
2022/06/30 16:40:45;;;;;;;2.50;1.30;;;;;;;31.67;27.02;99323.06;10353258;28;19929;-75
2022/06/30 16:45:48;;;;;;;2.35;1.58;;;;;;;31.61;27.48;99317.88;10351258;28;20098;-75
2022/06/30 16:50:49;;;;;;;2.15;1.80;;;;;;;31.51;27.17;99322.31;10346980;28;20057;-75
2022/06/30 16:55:51;;;;;;;2.13;1.20;;;;;;;31.49;27.62;99326.47;10359909;28;20282;-72
2022/06/30 17:00:53;;;;;;;1.50;1.35;;;;;;;31.44;27.46;99324.56;10362952;28;20112;-74
2022/06/30 17:05:55;;;;;;;2.10;1.70;;;;;;;31.41;27.64;99340.78;10396229;28;20274;-74
2022/06/30 17:11:14;;;;;;;2.13;1.30;;;;;;;31.34;27.06;99319.94;10354829;28;20620;-75
2022/06/30 17:16:17;;;;;;;1.95;1.55;;;;;;;31.34;26.43;99325.44;10345825;28;20103;-75
2022/06/30 17:21:18;;;;;;;1.80;1.50;;;;;;;31.24;25.59;99317.25;10346151;28;20362;-74
2022/06/30 17:26:20;;;;;;;2.88;1.70;;;;;;;31.17;25.90;99323.06;10347250;28;20052;-74
2022/06/30 17:31:22;;;;;;;;;;;;;;;31.12;26.57;99312.13;10362808;28;20297;-74
2022/06/30 17:36:23;;;;;;;2.43;2.13;;;;;;;31.09;26.56;99312.69;10375418;28;19930;-75
2022/06/30 17:41:25;;;;;;;2.92;1.77;;;;;;;30.95;26.75;99303.38;10355929;28;20054;-74
2022/06/30 17:46:26;;;;;;;3.45;1.65;;;;;;;30.87;26.97;99309.44;10344283;28;20056;-72
2022/06/30 17:51:28;;;;;;;2.08;1.88;;;;;;;30.78;27.00;99322.94;10325587;28;20073;-73
2022/06/30 17:56:30;;;;;;;2.15;1.88;;;;;;;30.66;27.59;99321.31;10348885;28;20052;-74
2022/06/30 18:01:32;;;;;;;2.03;1.80;;;;;;;30.54;27.94;99322.75;10358822;28;21346;-74
2022/06/30 18:11:59;;;;;;;3.13;1.83;;;;;;;30.43;28.32;99332.91;10344573;28;20128;-73
2022/06/30 18:17:01;;;;;;;2.20;2.00;;;;;;;30.39;28.87;99349.09;10359892;28;20044;-74
2022/06/30 18:22:03;;;;;;;2.75;2.55;;;;;;;30.35;29.47;99358.97;10356413;28;20061;-73
2022/06/30 18:27:04;;;;;;;3.75;2.63;;;;;;;30.24;29.56;99349.13;10359644;28;20073;-71
2022/06/30 18:32:06;;;;;;;2.50;2.30;;;;;;;30.14;30.00;99347.19;10352716;28;20743;-73
2022/06/30 18:37:08;;;;;;;3.13;2.00;;;;;;;30.09;30.33;99344.47;10353795;28;20409;-71
2022/06/30 18:42:09;;;;;;;3.30;2.10;;;;;;;30.03;30.81;99335.41;10356086;28;20110;-72
2022/06/30 18:47:11;;;;;;;2.63;1.85;;;;;;;30.00;30.87;99343.38;10367642;28;20196;-72
2022/06/30 18:52:12;;;;;;;6.40;2.73;;;;;;;29.93;31.26;99351.84;10351375;28;20056;-73
2022/06/30 18:57:14;;;;;;;4.40;2.13;;;;;;;29.87;31.66;99353.78;10339273;28;20053;-73
2022/06/30 19:02:15;;;;;;;8.03;3.13;;;;;;;29.78;32.09;99363.59;10342180;28;20490;-72
2022/06/30 19:07:17;;;;;;;6.10;2.03;;;;;;;29.55;35.12;99412.38;10348364;28;20057;-71
2022/06/30 19:12:18;;;;;;;6.00;1.87;;;;;;;29.08;36.94;99479.81;10342788;28;20056;-72
2022/06/30 19:17:20;;;;;;;4.23;2.20;;;;;;;28.55;38.71;99485.19;10349183;28;20140;-72
2022/06/30 19:22:23;;;;;;;9.07;3.80;;;;;;;25.20;58.16;99483.78;10333300;28;20079;-71
2022/06/30 19:27:45;;;;;;;3.28;2.63;;;;;;;24.11;73.08;99484.91;10341227;28;20342;-72
2022/06/30 19:32:47;;;;;;;4.53;3.38;;;;;;;24.63;74.13;99468.06;10337496;28;20045;-73
2022/06/30 19:37:48;;;;;;;5.70;3.13;;;;;;;25.05;68.32;99473.38;10336412;28;20137;-73
2022/06/30 19:42:49;;;;;;;4.72;2.40;;;;;;;25.46;64.05;99482.50;10349094;28;20056;-73
2022/06/30 19:47:51;;;;;;;8.85;3.42;;;;;;;25.72;62.52;99492.00;10347987;28;20053;-73
2022/06/30 19:52:52;;;;;;;4.35;3.03;;;;;;;25.65;59.82;99488.56;10340908;28;20065;-73
2022/06/30 19:57:57;;;;;;;6.95;3.22;;;;;;;25.65;60.61;99480.41;10342807;28;21958;-72
2022/06/30 20:13:38;;;;;;;5.00;3.03;;;;;;;25.45;60.28;99509.97;10349071;28;20191;-75
2022/06/30 20:18:40;;;;;;;4.68;2.40;;;;;;;25.35;61.73;99525.00;10348685;28;20093;-73
2022/06/30 20:23:41;;;;;;;6.70;2.80;;;;;;;25.02;63.52;99517.41;10352509;28;20064;-74
2022/06/30 20:28:43;;;;;;;3.67;2.80;;;;;;;24.97;61.02;99539.91;10354234;28;20041;-73
2022/06/30 20:33:45;;;;;;;7.30;2.25;;;;;;;24.65;60.02;99553.81;10354027;28;20056;-74
2022/06/30 20:38:47;;;;;;;2.78;2.05;;;;;;;24.50;59.48;99583.28;10355011;28;20056;-74
2022/06/30 20:43:49;;;;;;;5.85;2.33;;;;;;;23.97;60.78;99590.28;10364166;28;20049;-73
2022/06/30 20:54:15;;;;;;;5.05;2.50;;;;;;;23.90;61.06;99633.84;10353726;28;20056;-73
2022/06/30 20:59:17;;;;;;;4.45;2.55;;;;;;;23.69;60.16;99628.81;10345510;28;20041;-74
2022/06/30 21:04:18;;;;;;;4.75;2.50;;;;;;;23.46;59.47;99657.44;10356521;28;20125;-74
2022/06/30 21:09:20;;;;;;;3.67;2.22;;;;;;;23.53;58.64;99671.00;10351741;28;20072;-73
2022/06/30 21:14:21;;;;;;;3.80;2.08;;;;;;;23.51;59.52;99684.78;10348554;28;20056;-71
2022/06/30 21:19:23;;;;;;;4.07;2.17;;;;;;;23.19;57.69;99714.69;10348427;28;20064;-74
2022/06/30 21:24:24;;;;;;;4.68;2.20;;;;;;;22.91;54.77;99734.88;10349501;28;20111;-73
2022/06/30 21:29:26;;;;;;;3.65;1.45;;;;;;;22.78;55.29;99746.63;10358801;28;20052;-75
2022/06/30 21:34:27;;;;;;;1.88;1.52;;;;;;;22.48;54.85;99775.34;10365218;28;20034;-71
2022/06/30 21:39:29;;;;;;;2.58;1.90;;;;;;;22.54;55.08;99783.44;10346708;28;20170;-72
2022/06/30 21:44:30;;;;;;;3.30;1.63;;;;;;;22.53;54.58;99784.50;10344761;28;20694;-73
2022/06/30 21:49:32;;;;;;;2.25;1.50;;;;;;;22.81;54.48;99788.78;10346755;28;20111;-72
2022/06/30 21:54:34;;;;;;;5.13;1.42;;;;;;;22.83;54.86;99797.53;10386005;28;20042;-71
2022/06/30 21:59:35;;;;;;;2.28;1.60;;;;;;;22.79;55.89;99807.16;10386664;28;20049;-72
2022/06/30 22:04:38;;;;;;;2.42;1.27;;;;;;;22.84;54.89;99799.19;10366175;28;20128;-73
2022/06/30 22:09:40;;;;;;;3.60;1.00;;;;;;;22.89;57.46;99818.38;10339867;28;20054;-72
2022/06/30 22:14:41;;;;;;;1.25;0.68;;;;;;;22.84;54.27;99829.03;10339849;28;20139;-73
2022/06/30 22:19:43;;;;;;;1.42;0.70;;;;;;;22.74;54.19;99825.94;10342784;28;20369;-73
2022/06/30 22:24:45;;;;;;;1.48;0.80;;;;;;;22.60;55.08;99839.53;10343876;28;20053;-73
2022/06/30 22:29:46;;;;;;;0.82;0.70;;;;;;;22.67;55.31;99879.38;10346673;28;20501;-74
2022/06/30 22:34:48;;;;;;;2.47;0.82;;;;;;;22.57;55.13;99886.06;10341311;28;20084;-74
2022/06/30 22:39:50;;;;;;;0.85;0.30;;;;;;;22.54;53.46;99929.88;10342072;28;20063;-73
2022/06/30 22:44:51;;;;;;;1.88;0.65;;;;;;;22.52;51.66;99953.69;10350706;28;20166;-73
2022/06/30 22:49:53;;;;;;;0.95;0.20;;;;;;;22.50;52.28;99977.44;10355537;28;20077;-73
2022/06/30 22:54:54;;;;;;;0.32;0.17;;;;;;;22.48;52.16;99963.28;10349725;28;20060;-72
2022/06/30 22:59:56;;;;;;;1.48;0.50;;;;;;;22.36;55.30;99962.25;10351053;28;20060;-72
2022/06/30 23:04:59;;;;;;;0.73;0.30;;;;;;;22.04;53.29;99964.69;10348165;28;20061;-72
2022/06/30 23:10:00;;;;;;;1.17;0.30;;;;;;;21.98;53.13;99954.63;10350432;28;20070;-73
2022/06/30 23:15:02;;;;;;;0.30;0.20;;;;;;;21.76;51.64;99986.50;10353532;28;20672;-73
2022/06/30 23:20:05;;;;;;;0.40;0.10;;;;;;;21.35;52.07;99986.28;10349863;28;20119;-73
2022/06/30 23:25:07;;;;;;;0.37;0.10;;;;;;;21.41;52.93;99995.47;10347179;28;20073;-73
2022/06/30 23:30:10;;;;;;;0.70;0.20;;;;;;;21.29;53.19;100003.34;10349829;28;20562;-73
2022/06/30 23:35:11;;;;;;;0.20;0.10;;;;;;;21.12;53.47;100002.81;10356043;28;20057;-72
2022/06/30 23:40:13;;;;;;;0.35;0.10;;;;;;;21.08;53.80;100009.66;10352480;28;20081;-72
2022/06/30 23:45:14;;;;;;;0.30;0.20;;;;;;;20.84;54.08;100009.06;10350664;28;20055;-72
2022/06/30 23:50:16;;;;;;;0.40;0.28;;;;;;;20.68;54.72;100012.06;10351013;28;20100;-72
2022/06/30 23:55:18;;;;;;;0.30;0.13;;;;;;;20.63;56.20;100012.63;10350294;28;20712;-72
